sensor_id;sensor_type;location;lat;lon;timestamp;temperature;humidity
71672;DHT22;67659;45.554;11.812;2023-04-29T00:01:07;22.70;72.00
71672;DHT22;67659;45.554;11.812;2023-04-29T00:03:33;22.70;72.00
71672;DHT22;67659;45.554;11.812;2023-04-29T00:05:59;22.70;72.10
71672;DHT22;67659;45.554;11.812;2023-04-29T00:08:26;22.70;72.20
71672;DHT22;67659;45.554;11.812;2023-04-29T00:10:51;22.70;72.20
71672;DHT22;67659;45.554;11.812;2023-04-29T00:13:17;22.70;72.10
71672;DHT22;67659;45.554;11.812;2023-04-29T00:15:43;22.70;72.00
71672;DHT22;67659;45.554;11.812;2023-04-29T00:18:09;22.70;72.10
71672;DHT22;67659;45.554;11.812;2023-04-29T00:20:35;22.60;72.00
71672;DHT22;67659;45.554;11.812;2023-04-29T00:23:03;22.60;72.00
71672;DHT22;67659;45.554;11.812;2023-04-29T00:25:29;22.60;72.10
71672;DHT22;67659;45.554;11.812;2023-04-29T00:27:55;22.70;71.90
71672;DHT22;67659;45.554;11.812;2023-04-29T00:30:23;22.70;72.10
71672;DHT22;67659;45.554;11.812;2023-04-29T00:32:49;22.60;72.30
71672;DHT22;67659;45.554;11.812;2023-04-29T00:35:15;22.60;72.00
71672;DHT22;67659;45.554;11.812;2023-04-29T00:37:41;22.60;72.00
71672;DHT22;67659;45.554;11.812;2023-04-29T00:40:07;22.70;72.10
71672;DHT22;67659;45.554;11.812;2023-04-29T04:44:52;22.50;73.40
71672;DHT22;67659;45.554;11.812;2023-04-29T04:47:18;22.50;73.20
71672;DHT22;67659;45.554;11.812;2023-04-29T04:49:44;22.60;73.30
71672;DHT22;67659;45.554;11.812;2023-04-29T04:52:10;22.50;73.20
71672;DHT22;67659;45.554;11.812;2023-04-29T04:54:36;22.60;73.30
71672;DHT22;67659;45.554;11.812;2023-04-29T04:57:02;22.60;73.20
71672;DHT22;67659;45.554;11.812;2023-04-29T04:59:30;22.50;73.40
71672;DHT22;67659;45.554;11.812;2023-04-29T05:01:56;22.50;73.40
71672;DHT22;67659;45.554;11.812;2023-04-29T05:04:22;22.60;73.60
71672;DHT22;67659;45.554;11.812;2023-04-29T05:06:48;22.70;73.70
71672;DHT22;67659;45.554;11.812;2023-04-29T05:09:14;22.50;73.70
71672;DHT22;67659;45.554;11.812;2023-04-29T05:11:40;22.60;73.70
71672;DHT22;67659;45.554;11.812;2023-04-29T05:14:06;22.70;73.60
71672;DHT22;67659;45.554;11.812;2023-04-29T05:16:32;22.60;73.70
71672;DHT22;67659;45.554;11.812;2023-04-29T05:19:07;22.60;73.60
71672;DHT22;67659;45.554;11.812;2023-04-29T05:21:36;22.60;73.90
71672;DHT22;67659;45.554;11.812;2023-04-29T05:24:02;22.60;73.90
71672;DHT22;67659;45.554;11.812;2023-04-29T05:26:28;22.60;73.80
71672;DHT22;67659;45.554;11.812;2023-04-29T05:28:53;22.70;73.60
71672;DHT22;67659;45.554;11.812;2023-04-29T05:31:20;22.70;73.80
71672;DHT22;67659;45.554;11.812;2023-04-29T05:33:46;22.70;73.90
71672;DHT22;67659;45.554;11.812;2023-04-29T05:36:11;22.70;73.90
71672;DHT22;67659;45.554;11.812;2023-04-29T05:38:37;22.70;73.80
71672;DHT22;67659;45.554;11.812;2023-04-29T05:41:03;22.70;74.10
71672;DHT22;67659;45.554;11.812;2023-04-29T05:43:29;22.70;73.80
71672;DHT22;67659;45.554;11.812;2023-04-29T05:45:55;22.70;73.60
71672;DHT22;67659;45.554;11.812;2023-04-29T05:48:21;22.70;74.00
71672;DHT22;67659;45.554;11.812;2023-04-29T05:50:47;22.70;73.70
71672;DHT22;67659;45.554;11.812;2023-04-29T05:53:13;22.70;74.00
71672;DHT22;67659;45.554;11.812;2023-04-29T05:55:39;22.70;74.00
71672;DHT22;67659;45.554;11.812;2023-04-29T05:58:05;22.70;73.80
71672;DHT22;67659;45.554;11.812;2023-04-29T06:00:30;22.70;73.80
71672;DHT22;67659;45.554;11.812;2023-04-29T06:02:56;22.70;73.90
71672;DHT22;67659;45.554;11.812;2023-04-29T06:05:22;22.70;74.00
71672;DHT22;67659;45.554;11.812;2023-04-29T06:07:48;22.70;73.90
71672;DHT22;67659;45.554;11.812;2023-04-29T06:10:15;22.70;74.00
71672;DHT22;67659;45.554;11.812;2023-04-29T06:12:41;22.70;73.90
71672;DHT22;67659;45.554;11.812;2023-04-29T06:15:07;22.70;73.70
71672;DHT22;67659;45.554;11.812;2023-04-29T06:17:33;22.60;73.90
71672;DHT22;67659;45.554;11.812;2023-04-29T06:19:59;22.60;73.80
71672;DHT22;67659;45.554;11.812;2023-04-29T06:22:26;22.70;74.00
71672;DHT22;67659;45.554;11.812;2023-04-29T06:24:52;22.70;73.70
71672;DHT22;67659;45.554;11.812;2023-04-29T06:27:18;22.70;73.80
71672;DHT22;67659;45.554;11.812;2023-04-29T06:29:43;22.70;73.60
71672;DHT22;67659;45.554;11.812;2023-04-29T06:32:09;22.70;74.00
71672;DHT22;67659;45.554;11.812;2023-04-29T06:34:35;22.70;73.70
71672;DHT22;67659;45.554;11.812;2023-04-29T06:37:01;22.70;74.00
71672;DHT22;67659;45.554;11.812;2023-04-29T06:39:27;22.70;74.00
71672;DHT22;67659;45.554;11.812;2023-04-29T06:41:53;22.70;74.00
71672;DHT22;67659;45.554;11.812;2023-04-29T06:44:19;22.70;74.10
71672;DHT22;67659;45.554;11.812;2023-04-29T06:46:44;22.70;74.00
71672;DHT22;67659;45.554;11.812;2023-04-29T06:49:10;22.70;73.90
71672;DHT22;67659;45.554;11.812;2023-04-29T06:51:37;22.70;73.70
71672;DHT22;67659;45.554;11.812;2023-04-29T06:54:03;22.70;74.00
71672;DHT22;67659;45.554;11.812;2023-04-29T06:56:29;22.70;73.80
71672;DHT22;67659;45.554;11.812;2023-04-29T06:58:55;22.60;73.90
71672;DHT22;67659;45.554;11.812;2023-04-29T07:01:21;22.70;73.90
71672;DHT22;67659;45.554;11.812;2023-04-29T07:03:47;22.70;73.70
71672;DHT22;67659;45.554;11.812;2023-04-29T07:06:12;22.70;73.90
71672;DHT22;67659;45.554;11.812;2023-04-29T07:08:38;22.70;73.70
71672;DHT22;67659;45.554;11.812;2023-04-29T07:11:04;22.80;73.90
71672;DHT22;67659;45.554;11.812;2023-04-29T07:13:30;22.80;73.70
71672;DHT22;67659;45.554;11.812;2023-04-29T07:15:56;22.70;73.80
71672;DHT22;67659;45.554;11.812;2023-04-29T07:18:22;22.70;73.70
71672;DHT22;67659;45.554;11.812;2023-04-29T07:20:48;22.70;73.80
71672;DHT22;67659;45.554;11.812;2023-04-29T07:23:16;22.70;73.70
71672;DHT22;67659;45.554;11.812;2023-04-29T07:25:42;22.70;73.80
71672;DHT22;67659;45.554;11.812;2023-04-29T07:28:08;22.70;73.80
71672;DHT22;67659;45.554;11.812;2023-04-29T07:30:34;22.70;73.70
71672;DHT22;67659;45.554;11.812;2023-04-29T07:33:00;22.80;73.90
71672;DHT22;67659;45.554;11.812;2023-04-29T07:35:26;22.80;73.90
71672;DHT22;67659;45.554;11.812;2023-04-29T07:37:52;22.70;73.80
71672;DHT22;67659;45.554;11.812;2023-04-29T07:40:19;22.70;73.70
71672;DHT22;67659;45.554;11.812;2023-04-29T07:42:45;22.80;73.80
71672;DHT22;67659;45.554;11.812;2023-04-29T07:45:11;22.70;73.70
71672;DHT22;67659;45.554;11.812;2023-04-29T07:47:38;22.70;73.70
71672;DHT22;67659;45.554;11.812;2023-04-29T07:50:04;22.80;73.70
71672;DHT22;67659;45.554;11.812;2023-04-29T07:52:31;22.80;73.70
71672;DHT22;67659;45.554;11.812;2023-04-29T07:54:57;22.80;73.80
71672;DHT22;67659;45.554;11.812;2023-04-29T07:57:23;22.80;73.70
71672;DHT22;67659;45.554;11.812;2023-04-29T07:59:56;22.80;73.80
71672;DHT22;67659;45.554;11.812;2023-04-29T08:02:21;22.70;73.50
71672;DHT22;67659;45.554;11.812;2023-04-29T08:04:48;22.80;73.50
71672;DHT22;67659;45.554;11.812;2023-04-29T08:07:15;22.70;73.70
71672;DHT22;67659;45.554;11.812;2023-04-29T08:09:51;22.80;73.70
71672;DHT22;67659;45.554;11.812;2023-04-29T08:12:17;22.80;73.60
71672;DHT22;67659;45.554;11.812;2023-04-29T08:14:43;22.80;73.60
71672;DHT22;67659;45.554;11.812;2023-04-29T08:17:08;22.80;73.80
71672;DHT22;67659;45.554;11.812;2023-04-29T08:19:34;22.80;73.70
71672;DHT22;67659;45.554;11.812;2023-04-29T08:22:00;22.80;73.50
71672;DHT22;67659;45.554;11.812;2023-04-29T08:24:28;22.80;73.70
71672;DHT22;67659;45.554;11.812;2023-04-29T08:26:54;22.80;73.70
71672;DHT22;67659;45.554;11.812;2023-04-29T08:29:20;22.80;73.60
71672;DHT22;67659;45.554;11.812;2023-04-29T08:31:46;22.90;73.60
71672;DHT22;67659;45.554;11.812;2023-04-29T08:34:15;22.80;73.60
71672;DHT22;67659;45.554;11.812;2023-04-29T08:36:41;22.80;73.60
71672;DHT22;67659;45.554;11.812;2023-04-29T08:39:07;22.80;73.60
71672;DHT22;67659;45.554;11.812;2023-04-29T08:41:39;22.80;73.40
71672;DHT22;67659;45.554;11.812;2023-04-29T08:44:05;22.90;73.50
71672;DHT22;67659;45.554;11.812;2023-04-29T08:46:31;22.90;73.70
71672;DHT22;67659;45.554;11.812;2023-04-29T08:48:57;22.80;73.60
71672;DHT22;67659;45.554;11.812;2023-04-29T08:51:24;22.80;73.80
71672;DHT22;67659;45.554;11.812;2023-04-29T08:53:50;22.80;73.70
71672;DHT22;67659;45.554;11.812;2023-04-29T08:56:17;22.80;73.70
71672;DHT22;67659;45.554;11.812;2023-04-29T08:58:46;22.90;73.50
71672;DHT22;67659;45.554;11.812;2023-04-29T09:01:14;22.90;73.50
71672;DHT22;67659;45.554;11.812;2023-04-29T09:03:53;22.80;73.40
71672;DHT22;67659;45.554;11.812;2023-04-29T09:06:21;22.90;73.50
71672;DHT22;67659;45.554;11.812;2023-04-29T09:08:50;22.90;73.60
71672;DHT22;67659;45.554;11.812;2023-04-29T09:11:16;22.80;73.30
71672;DHT22;67659;45.554;11.812;2023-04-29T09:13:43;22.90;73.30
71672;DHT22;67659;45.554;11.812;2023-04-29T09:16:11;22.80;73.40
71672;DHT22;67659;45.554;11.812;2023-04-29T09:18:48;22.90;73.40
71672;DHT22;67659;45.554;11.812;2023-04-29T09:21:20;22.80;73.50
71672;DHT22;67659;45.554;11.812;2023-04-29T09:23:48;22.80;73.60
71672;DHT22;67659;45.554;11.812;2023-04-29T09:26:15;22.90;73.40
71672;DHT22;67659;45.554;11.812;2023-04-29T09:28:41;22.90;73.50
71672;DHT22;67659;45.554;11.812;2023-04-29T09:31:10;22.90;73.40
71672;DHT22;67659;45.554;11.812;2023-04-29T09:33:48;22.90;73.30
71672;DHT22;67659;45.554;11.812;2023-04-29T09:39:14;22.90;73.40
71672;DHT22;67659;45.554;11.812;2023-04-29T09:44:20;22.80;73.30
71672;DHT22;67659;45.554;11.812;2023-04-29T09:46:57;22.80;73.40
71672;DHT22;67659;45.554;11.812;2023-04-29T09:49:34;22.80;73.40
71672;DHT22;67659;45.554;11.812;2023-04-29T09:52:04;22.80;73.40
71672;DHT22;67659;45.554;11.812;2023-04-29T09:54:33;22.90;73.50
71672;DHT22;67659;45.554;11.812;2023-04-29T09:57:01;22.90;73.40
71672;DHT22;67659;45.554;11.812;2023-04-29T09:59:31;22.90;73.20
71672;DHT22;67659;45.554;11.812;2023-04-29T10:02:01;22.90;73.30
71672;DHT22;67659;45.554;11.812;2023-04-29T10:04:31;22.90;73.20
71672;DHT22;67659;45.554;11.812;2023-04-29T10:06:58;22.90;73.00
71672;DHT22;67659;45.554;11.812;2023-04-29T10:09:25;22.80;73.50
71672;DHT22;67659;45.554;11.812;2023-04-29T10:11:52;22.80;73.40
71672;DHT22;67659;45.554;11.812;2023-04-29T10:14:21;22.90;73.50
71672;DHT22;67659;45.554;11.812;2023-04-29T10:16:53;22.90;73.30
71672;DHT22;67659;45.554;11.812;2023-04-29T10:19:30;22.90;73.30
71672;DHT22;67659;45.554;11.812;2023-04-29T10:22:04;22.90;73.30
71672;DHT22;67659;45.554;11.812;2023-04-29T10:24:35;22.90;73.10
71672;DHT22;67659;45.554;11.812;2023-04-29T10:27:04;22.80;73.20
71672;DHT22;67659;45.554;11.812;2023-04-29T10:29:33;22.80;73.10
71672;DHT22;67659;45.554;11.812;2023-04-29T10:32:03;22.90;73.00
71672;DHT22;67659;45.554;11.812;2023-04-29T10:34:31;22.80;73.00
71672;DHT22;67659;45.554;11.812;2023-04-29T10:36:58;22.90;73.10
71672;DHT22;67659;45.554;11.812;2023-04-29T10:39:39;22.90;73.20
71672;DHT22;67659;45.554;11.812;2023-04-29T10:42:19;22.80;73.20
71672;DHT22;67659;45.554;11.812;2023-04-29T10:48:10;22.90;73.10
71672;DHT22;67659;45.554;11.812;2023-04-29T10:50:59;23.00;73.10
71672;DHT22;67659;45.554;11.812;2023-04-29T10:53:26;22.90;73.20
71672;DHT22;67659;45.554;11.812;2023-04-29T10:55:58;22.90;73.00
71672;DHT22;67659;45.554;11.812;2023-04-29T10:58:40;22.90;73.20
71672;DHT22;67659;45.554;11.812;2023-04-29T11:01:07;22.90;73.00
71672;DHT22;67659;45.554;11.812;2023-04-29T11:03:55;23.00;73.10
71672;DHT22;67659;45.554;11.812;2023-04-29T11:06:25;22.90;73.10
71672;DHT22;67659;45.554;11.812;2023-04-29T11:09:14;23.00;72.90
71672;DHT22;67659;45.554;11.812;2023-04-29T11:11:44;22.90;72.80
71672;DHT22;67659;45.554;11.812;2023-04-29T11:14:12;22.90;72.90
71672;DHT22;67659;45.554;11.812;2023-04-29T11:16:52;23.00;72.80
71672;DHT22;67659;45.554;11.812;2023-04-29T11:19:18;23.00;73.00
71672;DHT22;67659;45.554;11.812;2023-04-29T11:21:45;23.00;72.90
71672;DHT22;67659;45.554;11.812;2023-04-29T11:24:13;23.00;72.80
71672;DHT22;67659;45.554;11.812;2023-04-29T11:26:41;23.00;73.00
71672;DHT22;67659;45.554;11.812;2023-04-29T11:29:08;23.00;72.90
71672;DHT22;67659;45.554;11.812;2023-04-29T11:31:35;22.90;72.90
71672;DHT22;67659;45.554;11.812;2023-04-29T11:34:03;23.10;73.00
71672;DHT22;67659;45.554;11.812;2023-04-29T11:36:32;23.00;72.90
71672;DHT22;67659;45.554;11.812;2023-04-29T11:39:00;23.00;73.10
71672;DHT22;67659;45.554;11.812;2023-04-29T11:41:27;22.90;73.00
71672;DHT22;67659;45.554;11.812;2023-04-29T11:43:55;23.00;72.90
71672;DHT22;67659;45.554;11.812;2023-04-29T11:46:22;23.10;72.70
71672;DHT22;67659;45.554;11.812;2023-04-29T11:48:49;23.00;72.80
71672;DHT22;67659;45.554;11.812;2023-04-29T11:51:17;23.00;72.80
71672;DHT22;67659;45.554;11.812;2023-04-29T11:53:44;23.00;73.00
71672;DHT22;67659;45.554;11.812;2023-04-29T11:56:11;23.10;72.80
71672;DHT22;67659;45.554;11.812;2023-04-29T11:58:38;23.00;72.90
71672;DHT22;67659;45.554;11.812;2023-04-29T12:01:07;23.00;72.90
71672;DHT22;67659;45.554;11.812;2023-04-29T12:03:32;23.00;72.90
71672;DHT22;67659;45.554;11.812;2023-04-29T12:06:01;23.00;72.80
71672;DHT22;67659;45.554;11.812;2023-04-29T12:08:28;23.00;72.80
71672;DHT22;67659;45.554;11.812;2023-04-29T12:10:56;23.10;72.90
71672;DHT22;67659;45.554;11.812;2023-04-29T12:13:23;23.00;72.80
71672;DHT22;67659;45.554;11.812;2023-04-29T12:15:51;23.10;73.00
71672;DHT22;67659;45.554;11.812;2023-04-29T12:18:18;23.00;72.90
71672;DHT22;67659;45.554;11.812;2023-04-29T12:20:45;23.10;72.90
71672;DHT22;67659;45.554;11.812;2023-04-29T12:23:15;23.00;72.80
71672;DHT22;67659;45.554;11.812;2023-04-29T12:25:49;23.10;72.80
71672;DHT22;67659;45.554;11.812;2023-04-29T12:28:17;23.00;73.00
71672;DHT22;67659;45.554;11.812;2023-04-29T12:30:44;23.00;72.80
71672;DHT22;67659;45.554;11.812;2023-04-29T12:33:18;23.00;72.90
71672;DHT22;67659;45.554;11.812;2023-04-29T12:35:47;23.00;72.80
71672;DHT22;67659;45.554;11.812;2023-04-29T12:38:18;23.10;73.00
71672;DHT22;67659;45.554;11.812;2023-04-29T12:40:45;23.10;72.80
71672;DHT22;67659;45.554;11.812;2023-04-29T12:43:11;23.10;72.90
71672;DHT22;67659;45.554;11.812;2023-04-29T12:45:38;23.10;72.80
71672;DHT22;67659;45.554;11.812;2023-04-29T12:48:04;23.10;72.70
71672;DHT22;67659;45.554;11.812;2023-04-29T12:50:33;23.10;72.60
71672;DHT22;67659;45.554;11.812;2023-04-29T12:53:02;23.00;72.70
71672;DHT22;67659;45.554;11.812;2023-04-29T12:55:33;23.00;72.70
71672;DHT22;67659;45.554;11.812;2023-04-29T12:58:00;23.10;73.00
71672;DHT22;67659;45.554;11.812;2023-04-29T13:00:26;23.10;72.70
71672;DHT22;67659;45.554;11.812;2023-04-29T13:02:52;23.00;72.70
71672;DHT22;67659;45.554;11.812;2023-04-29T13:05:18;23.00;72.80
71672;DHT22;67659;45.554;11.812;2023-04-29T13:07:44;23.10;72.60
71672;DHT22;67659;45.554;11.812;2023-04-29T13:10:10;23.00;72.80
71672;DHT22;67659;45.554;11.812;2023-04-29T13:12:38;23.10;72.70
71672;DHT22;67659;45.554;11.812;2023-04-29T13:15:05;23.10;72.80
71672;DHT22;67659;45.554;11.812;2023-04-29T13:17:34;23.10;72.70
71672;DHT22;67659;45.554;11.812;2023-04-29T13:20:02;23.10;72.70
71672;DHT22;67659;45.554;11.812;2023-04-29T13:22:29;23.00;72.60
71672;DHT22;67659;45.554;11.812;2023-04-29T13:24:55;23.10;72.80
71672;DHT22;67659;45.554;11.812;2023-04-29T13:27:21;23.10;72.70
71672;DHT22;67659;45.554;11.812;2023-04-29T13:29:47;23.10;73.00
71672;DHT22;67659;45.554;11.812;2023-04-29T13:32:13;23.00;72.70
71672;DHT22;67659;45.554;11.812;2023-04-29T13:34:40;23.10;72.70
71672;DHT22;67659;45.554;11.812;2023-04-29T13:37:09;23.00;72.50
71672;DHT22;67659;45.554;11.812;2023-04-29T13:39:37;23.10;72.80
71672;DHT22;67659;45.554;11.812;2023-04-29T13:42:04;23.10;72.70
71672;DHT22;67659;45.554;11.812;2023-04-29T13:44:31;23.00;72.50
71672;DHT22;67659;45.554;11.812;2023-04-29T13:46:57;23.10;72.50
71672;DHT22;67659;45.554;11.812;2023-04-29T13:49:23;23.10;72.70
71672;DHT22;67659;45.554;11.812;2023-04-29T13:51:50;23.10;72.70
71672;DHT22;67659;45.554;11.812;2023-04-29T13:54:16;23.10;72.80
71672;DHT22;67659;45.554;11.812;2023-04-29T13:56:44;23.10;72.60
71672;DHT22;67659;45.554;11.812;2023-04-29T13:59:10;23.10;72.80
71672;DHT22;67659;45.554;11.812;2023-04-29T14:01:37;23.10;72.60
71672;DHT22;67659;45.554;11.812;2023-04-29T14:04:03;23.10;72.70
71672;DHT22;67659;45.554;11.812;2023-04-29T14:06:29;23.00;72.40
71672;DHT22;67659;45.554;11.812;2023-04-29T14:09:06;23.00;72.80
71672;DHT22;67659;45.554;11.812;2023-04-29T14:11:32;23.10;72.70
71672;DHT22;67659;45.554;11.812;2023-04-29T14:14:01;23.10;72.40
71672;DHT22;67659;45.554;11.812;2023-04-29T14:16:28;23.00;72.60
71672;DHT22;67659;45.554;11.812;2023-04-29T14:18:54;23.10;72.50
71672;DHT22;67659;45.554;11.812;2023-04-29T14:21:20;23.10;72.80
71672;DHT22;67659;45.554;11.812;2023-04-29T14:23:48;23.00;72.80
71672;DHT22;67659;45.554;11.812;2023-04-29T14:26:14;23.00;72.50
71672;DHT22;67659;45.554;11.812;2023-04-29T14:28:40;23.10;72.80
71672;DHT22;67659;45.554;11.812;2023-04-29T14:31:06;23.10;72.70
71672;DHT22;67659;45.554;11.812;2023-04-29T14:33:32;23.10;72.50
71672;DHT22;67659;45.554;11.812;2023-04-29T14:35:58;23.00;72.70
71672;DHT22;67659;45.554;11.812;2023-04-29T14:38:25;23.10;72.80
71672;DHT22;67659;45.554;11.812;2023-04-29T14:40:51;23.00;72.60
71672;DHT22;67659;45.554;11.812;2023-04-29T14:43:17;23.10;72.50
71672;DHT22;67659;45.554;11.812;2023-04-29T14:45:43;23.00;72.60
71672;DHT22;67659;45.554;11.812;2023-04-29T14:48:10;23.10;72.60
71672;DHT22;67659;45.554;11.812;2023-04-29T14:50:36;23.10;72.70
71672;DHT22;67659;45.554;11.812;2023-04-29T14:53:02;23.00;72.70
71672;DHT22;67659;45.554;11.812;2023-04-29T14:55:28;23.00;72.50
71672;DHT22;67659;45.554;11.812;2023-04-29T14:57:57;23.10;72.50
71672;DHT22;67659;45.554;11.812;2023-04-29T15:00:23;23.00;72.60
71672;DHT22;67659;45.554;11.812;2023-04-29T15:02:49;23.10;72.70
71672;DHT22;67659;45.554;11.812;2023-04-29T15:05:15;23.00;72.50
71672;DHT22;67659;45.554;11.812;2023-04-29T15:07:41;23.10;72.40
71672;DHT22;67659;45.554;11.812;2023-04-29T15:10:07;23.00;72.80
71672;DHT22;67659;45.554;11.812;2023-04-29T15:12:34;23.00;72.70
71672;DHT22;67659;45.554;11.812;2023-04-29T15:14:59;23.10;72.70
71672;DHT22;67659;45.554;11.812;2023-04-29T15:17:25;23.00;72.50
71672;DHT22;67659;45.554;11.812;2023-04-29T15:19:51;23.00;72.70
71672;DHT22;67659;45.554;11.812;2023-04-29T15:22:17;23.00;72.50
71672;DHT22;67659;45.554;11.812;2023-04-29T15:24:43;23.10;72.70
71672;DHT22;67659;45.554;11.812;2023-04-29T15:27:09;23.10;72.60
71672;DHT22;67659;45.554;11.812;2023-04-29T15:29:35;23.00;72.50
71672;DHT22;67659;45.554;11.812;2023-04-29T15:32:02;23.00;72.70
71672;DHT22;67659;45.554;11.812;2023-04-29T15:34:28;23.00;72.50
71672;DHT22;67659;45.554;11.812;2023-04-29T15:36:54;23.00;72.60
71672;DHT22;67659;45.554;11.812;2023-04-29T15:39:21;23.00;72.90
71672;DHT22;67659;45.554;11.812;2023-04-29T15:41:46;23.00;72.90
71672;DHT22;67659;45.554;11.812;2023-04-29T15:44:13;23.10;72.50
71672;DHT22;67659;45.554;11.812;2023-04-29T15:46:39;22.90;72.90
71672;DHT22;67659;45.554;11.812;2023-04-29T15:49:06;23.00;72.50
71672;DHT22;67659;45.554;11.812;2023-04-29T15:51:32;23.00;72.70
71672;DHT22;67659;45.554;11.812;2023-04-29T15:53:58;23.00;72.70
71672;DHT22;67659;45.554;11.812;2023-04-29T15:56:24;23.00;72.60
71672;DHT22;67659;45.554;11.812;2023-04-29T15:58:50;23.10;72.60
71672;DHT22;67659;45.554;11.812;2023-04-29T16:01:18;23.00;72.90
71672;DHT22;67659;45.554;11.812;2023-04-29T16:03:43;23.00;72.90
71672;DHT22;67659;45.554;11.812;2023-04-29T16:06:09;23.00;72.70
71672;DHT22;67659;45.554;11.812;2023-04-29T16:08:35;23.00;72.80
71672;DHT22;67659;45.554;11.812;2023-04-29T16:11:01;22.90;72.70
71672;DHT22;67659;45.554;11.812;2023-04-29T16:13:27;23.00;72.60
71672;DHT22;67659;45.554;11.812;2023-04-29T16:15:54;23.00;72.90
71672;DHT22;67659;45.554;11.812;2023-04-29T16:18:20;23.00;72.70
71672;DHT22;67659;45.554;11.812;2023-04-29T16:20:46;23.00;72.80
71672;DHT22;67659;45.554;11.812;2023-04-29T16:23:16;23.00;72.80
71672;DHT22;67659;45.554;11.812;2023-04-29T16:25:45;22.90;72.70
71672;DHT22;67659;45.554;11.812;2023-04-29T16:28:11;23.00;72.80
71672;DHT22;67659;45.554;11.812;2023-04-29T16:30:37;23.00;72.80
71672;DHT22;67659;45.554;11.812;2023-04-29T16:33:03;23.00;72.70
71672;DHT22;67659;45.554;11.812;2023-04-29T16:35:29;22.90;72.80
71672;DHT22;67659;45.554;11.812;2023-04-29T16:37:55;23.00;72.70
71672;DHT22;67659;45.554;11.812;2023-04-29T16:40:21;23.00;72.70
71672;DHT22;67659;45.554;11.812;2023-04-29T16:42:48;23.00;72.80
71672;DHT22;67659;45.554;11.812;2023-04-29T16:45:14;23.00;73.00
71672;DHT22;67659;45.554;11.812;2023-04-29T16:47:41;23.00;72.60
71672;DHT22;67659;45.554;11.812;2023-04-29T16:50:08;23.00;72.80
71672;DHT22;67659;45.554;11.812;2023-04-29T16:52:34;23.00;72.90
71672;DHT22;67659;45.554;11.812;2023-04-29T16:55:00;23.00;72.70
71672;DHT22;67659;45.554;11.812;2023-04-29T16:57:28;23.00;72.80
71672;DHT22;67659;45.554;11.812;2023-04-29T16:59:54;23.00;72.90
71672;DHT22;67659;45.554;11.812;2023-04-29T17:02:20;23.00;72.70
71672;DHT22;67659;45.554;11.812;2023-04-29T17:04:46;23.00;72.60
71672;DHT22;67659;45.554;11.812;2023-04-29T17:07:12;22.90;72.60
71672;DHT22;67659;45.554;11.812;2023-04-29T17:09:40;23.00;72.80
71672;DHT22;67659;45.554;11.812;2023-04-29T17:12:06;23.00;72.70
71672;DHT22;67659;45.554;11.812;2023-04-29T17:14:32;22.90;72.70
71672;DHT22;67659;45.554;11.812;2023-04-29T17:16:58;23.00;72.60
71672;DHT22;67659;45.554;11.812;2023-04-29T17:19:24;23.00;72.80
71672;DHT22;67659;45.554;11.812;2023-04-29T17:21:50;23.00;73.00
71672;DHT22;67659;45.554;11.812;2023-04-29T17:24:16;22.90;72.90
71672;DHT22;67659;45.554;11.812;2023-04-29T17:26:42;23.00;72.80
71672;DHT22;67659;45.554;11.812;2023-04-29T17:29:08;23.00;72.80
71672;DHT22;67659;45.554;11.812;2023-04-29T17:31:35;23.00;72.80
71672;DHT22;67659;45.554;11.812;2023-04-29T17:34:12;23.00;72.70
71672;DHT22;67659;45.554;11.812;2023-04-29T17:36:55;23.00;72.90
71672;DHT22;67659;45.554;11.812;2023-04-29T17:39:21;23.00;72.70
71672;DHT22;67659;45.554;11.812;2023-04-29T17:41:47;23.00;72.80
71672;DHT22;67659;45.554;11.812;2023-04-29T17:44:13;22.90;72.80
71672;DHT22;67659;45.554;11.812;2023-04-29T17:46:39;22.90;72.90
71672;DHT22;67659;45.554;11.812;2023-04-29T17:49:05;23.00;72.80
71672;DHT22;67659;45.554;11.812;2023-04-29T17:51:31;23.00;72.70
71672;DHT22;67659;45.554;11.812;2023-04-29T17:54:00;22.90;72.90
71672;DHT22;67659;45.554;11.812;2023-04-29T17:56:26;23.00;72.80
71672;DHT22;67659;45.554;11.812;2023-04-29T17:58:53;22.90;73.00
71672;DHT22;67659;45.554;11.812;2023-04-29T18:01:19;23.00;72.80
71672;DHT22;67659;45.554;11.812;2023-04-29T18:03:44;22.90;72.90
71672;DHT22;67659;45.554;11.812;2023-04-29T18:06:11;22.90;72.80
71672;DHT22;67659;45.554;11.812;2023-04-29T18:08:37;23.00;72.90
71672;DHT22;67659;45.554;11.812;2023-04-29T18:11:03;22.90;72.90
71672;DHT22;67659;45.554;11.812;2023-04-29T18:13:29;22.90;72.80
71672;DHT22;67659;45.554;11.812;2023-04-29T18:15:54;23.00;73.00
71672;DHT22;67659;45.554;11.812;2023-04-29T18:18:20;22.90;73.00
71672;DHT22;67659;45.554;11.812;2023-04-29T18:20:46;22.80;73.00
71672;DHT22;67659;45.554;11.812;2023-04-29T18:23:12;22.90;72.80
71672;DHT22;67659;45.554;11.812;2023-04-29T18:25:39;22.90;73.00
71672;DHT22;67659;45.554;11.812;2023-04-29T18:28:05;22.90;72.90
71672;DHT22;67659;45.554;11.812;2023-04-29T18:30:35;22.90;72.90
71672;DHT22;67659;45.554;11.812;2023-04-29T18:33:02;22.90;73.00
71672;DHT22;67659;45.554;11.812;2023-04-29T18:35:28;22.90;72.80
71672;DHT22;67659;45.554;11.812;2023-04-29T18:37:53;22.90;73.00
71672;DHT22;67659;45.554;11.812;2023-04-29T18:40:20;22.90;72.90
71672;DHT22;67659;45.554;11.812;2023-04-29T18:42:46;22.90;73.00
71672;DHT22;67659;45.554;11.812;2023-04-29T18:45:11;22.90;72.90
71672;DHT22;67659;45.554;11.812;2023-04-29T18:47:37;22.90;72.90
71672;DHT22;67659;45.554;11.812;2023-04-29T18:50:03;22.90;72.90
71672;DHT22;67659;45.554;11.812;2023-04-29T18:52:29;22.90;73.00
71672;DHT22;67659;45.554;11.812;2023-04-29T18:54:55;22.90;73.10
71672;DHT22;67659;45.554;11.812;2023-04-29T18:57:21;22.80;73.10
71672;DHT22;67659;45.554;11.812;2023-04-29T18:59:47;22.90;72.90
71672;DHT22;67659;45.554;11.812;2023-04-29T19:02:13;22.90;73.10
71672;DHT22;67659;45.554;11.812;2023-04-29T19:04:39;22.90;73.10
71672;DHT22;67659;45.554;11.812;2023-04-29T19:07:05;22.90;73.00
71672;DHT22;67659;45.554;11.812;2023-04-29T19:09:31;22.90;72.90
71672;DHT22;67659;45.554;11.812;2023-04-29T19:11:58;22.90;73.20
71672;DHT22;67659;45.554;11.812;2023-04-29T19:14:25;23.00;73.00
71672;DHT22;67659;45.554;11.812;2023-04-29T19:16:51;22.90;73.00
71672;DHT22;67659;45.554;11.812;2023-04-29T19:19:17;22.90;73.20
71672;DHT22;67659;45.554;11.812;2023-04-29T19:21:44;22.90;73.00
71672;DHT22;67659;45.554;11.812;2023-04-29T19:24:11;22.90;72.90
71672;DHT22;67659;45.554;11.812;2023-04-29T19:26:37;22.90;73.20